sensor_id;sensor_type;location;lat;lon;timestamp;temperature;humidity
17984;DHT22;9117;52.420;20.728;2022-09-28T00:00:58;11.30;40.50
17984;DHT22;9117;52.420;20.728;2022-09-28T00:03:26;11.30;99.90
17984;DHT22;9117;52.420;20.728;2022-09-28T00:06:01;11.30;99.90
17984;DHT22;9117;52.420;20.728;2022-09-28T00:08:29;11.30;99.90
17984;DHT22;9117;52.420;20.728;2022-09-28T00:10:57;11.20;1.00
17984;DHT22;9117;52.420;20.728;2022-09-28T00:13:26;11.20;1.00
17984;DHT22;9117;52.420;20.728;2022-09-28T00:15:59;11.20;1.00
17984;DHT22;9117;52.420;20.728;2022-09-28T00:18:28;11.10;99.90
17984;DHT22;9117;52.420;20.728;2022-09-28T00:21:02;11.10;99.90
17984;DHT22;9117;52.420;20.728;2022-09-28T00:23:30;11.10;1.00
17984;DHT22;9117;52.420;20.728;2022-09-28T00:26:02;11.00;99.90
17984;DHT22;9117;52.420;20.728;2022-09-28T00:28:30;11.10;99.90
17984;DHT22;9117;52.420;20.728;2022-09-28T00:30:59;11.00;21.40
17984;DHT22;9117;52.420;20.728;2022-09-28T00:33:28;10.90;1.00
17984;DHT22;9117;52.420;20.728;2022-09-28T00:35:56;10.80;1.00
17984;DHT22;9117;52.420;20.728;2022-09-28T00:38:28;10.80;1.00
17984;DHT22;9117;52.420;20.728;2022-09-28T00:40:56;10.70;99.90
17984;DHT22;9117;52.420;20.728;2022-09-28T00:43:25;10.60;1.00
17984;DHT22;9117;52.420;20.728;2022-09-28T00:45:57;10.50;1.00
17984;DHT22;9117;52.420;20.728;2022-09-28T00:48:28;10.50;1.00
17984;DHT22;9117;52.420;20.728;2022-09-28T00:51:01;10.50;1.00
17984;DHT22;9117;52.420;20.728;2022-09-28T00:53:34;10.40;99.90
17984;DHT22;9117;52.420;20.728;2022-09-28T00:56:04;10.40;42.70
17984;DHT22;9117;52.420;20.728;2022-09-28T00:58:38;10.30;1.00
17984;DHT22;9117;52.420;20.728;2022-09-28T01:01:08;10.30;16.40
17984;DHT22;9117;52.420;20.728;2022-09-28T01:03:36;10.30;1.00
17984;DHT22;9117;52.420;20.728;2022-09-28T01:06:07;10.30;99.90
17984;DHT22;9117;52.420;20.728;2022-09-28T01:08:38;10.30;1.00
17984;DHT22;9117;52.420;20.728;2022-09-28T01:11:06;10.20;1.00
17984;DHT22;9117;52.420;20.728;2022-09-28T01:13:35;10.20;1.00
17984;DHT22;9117;52.420;20.728;2022-09-28T01:16:12;10.20;1.00
17984;DHT22;9117;52.420;20.728;2022-09-28T01:18:48;10.10;1.00
17984;DHT22;9117;52.420;20.728;2022-09-28T01:21:20;10.10;1.00
17984;DHT22;9117;52.420;20.728;2022-09-28T01:24:11;10.10;99.90
17984;DHT22;9117;52.420;20.728;2022-09-28T01:26:47;10.10;99.90
17984;DHT22;9117;52.420;20.728;2022-09-28T01:29:30;10.10;99.90
17984;DHT22;9117;52.420;20.728;2022-09-28T01:32:08;10.10;1.00
17984;DHT22;9117;52.420;20.728;2022-09-28T01:34:44;10.10;1.00
17984;DHT22;9117;52.420;20.728;2022-09-28T01:37:17;10.00;99.90
17984;DHT22;9117;52.420;20.728;2022-09-28T01:39:48;10.10;1.00
17984;DHT22;9117;52.420;20.728;2022-09-28T01:42:23;10.10;1.00
17984;DHT22;9117;52.420;20.728;2022-09-28T01:44:55;10.10;1.00
17984;DHT22;9117;52.420;20.728;2022-09-28T01:47:32;10.10;1.00
17984;DHT22;9117;52.420;20.728;2022-09-28T01:50:05;10.10;1.00
17984;DHT22;9117;52.420;20.728;2022-09-28T01:52:39;10.10;1.00
17984;DHT22;9117;52.420;20.728;2022-09-28T01:55:10;10.10;1.00
17984;DHT22;9117;52.420;20.728;2022-09-28T01:57:43;10.10;1.00
17984;DHT22;9117;52.420;20.728;2022-09-28T02:00:15;10.10;1.00
17984;DHT22;9117;52.420;20.728;2022-09-28T02:02:48;10.10;1.00
17984;DHT22;9117;52.420;20.728;2022-09-28T02:05:21;10.10;1.00
17984;DHT22;9117;52.420;20.728;2022-09-28T02:07:54;10.10;1.00
17984;DHT22;9117;52.420;20.728;2022-09-28T02:10:29;10.00;99.90
17984;DHT22;9117;52.420;20.728;2022-09-28T02:13:03;10.00;1.00
17984;DHT22;9117;52.420;20.728;2022-09-28T02:15:36;10.00;1.00
17984;DHT22;9117;52.420;20.728;2022-09-28T02:18:06;10.00;1.00
17984;DHT22;9117;52.420;20.728;2022-09-28T02:20:35;10.00;99.90
17984;DHT22;9117;52.420;20.728;2022-09-28T02:23:06;10.10;1.00
17984;DHT22;9117;52.420;20.728;2022-09-28T02:25:40;10.10;99.90
17984;DHT22;9117;52.420;20.728;2022-09-28T02:28:12;10.00;1.00
17984;DHT22;9117;52.420;20.728;2022-09-28T02:30:42;10.00;78.50
17984;DHT22;9117;52.420;20.728;2022-09-28T02:33:15;10.00;1.00
17984;DHT22;9117;52.420;20.728;2022-09-28T02:35:45;10.00;1.00
17984;DHT22;9117;52.420;20.728;2022-09-28T02:38:14;10.10;1.00
17984;DHT22;9117;52.420;20.728;2022-09-28T02:40:45;10.00;1.00
17984;DHT22;9117;52.420;20.728;2022-09-28T02:43:22;10.00;1.00
17984;DHT22;9117;52.420;20.728;2022-09-28T02:45:58;10.00;99.90
17984;DHT22;9117;52.420;20.728;2022-09-28T02:48:44;10.00;1.00
17984;DHT22;9117;52.420;20.728;2022-09-28T02:51:39;10.00;1.00
17984;DHT22;9117;52.420;20.728;2022-09-28T02:54:28;10.00;1.00
17984;DHT22;9117;52.420;20.728;2022-09-28T02:57:09;10.00;1.00
17984;DHT22;9117;52.420;20.728;2022-09-28T02:59:46;10.00;99.90
17984;DHT22;9117;52.420;20.728;2022-09-28T03:02:26;10.00;1.00
17984;DHT22;9117;52.420;20.728;2022-09-28T03:07:54;10.00;99.90
17984;DHT22;9117;52.420;20.728;2022-09-28T03:10:28;10.00;99.90
17984;DHT22;9117;52.420;20.728;2022-09-28T03:12:57;10.00;1.00
17984;DHT22;9117;52.420;20.728;2022-09-28T03:15:28;10.00;1.00
17984;DHT22;9117;52.420;20.728;2022-09-28T03:17:57;10.00;99.90
17984;DHT22;9117;52.420;20.728;2022-09-28T03:20:27;10.00;1.00
17984;DHT22;9117;52.420;20.728;2022-09-28T03:22:55;10.00;99.90
17984;DHT22;9117;52.420;20.728;2022-09-28T03:25:43;10.00;1.00
17984;DHT22;9117;52.420;20.728;2022-09-28T03:28:11;10.00;1.00
17984;DHT22;9117;52.420;20.728;2022-09-28T03:30:41;10.10;1.00
17984;DHT22;9117;52.420;20.728;2022-09-28T03:33:09;10.00;1.00
17984;DHT22;9117;52.420;20.728;2022-09-28T03:35:37;10.00;1.00
17984;DHT22;9117;52.420;20.728;2022-09-28T03:38:05;10.10;99.90
17984;DHT22;9117;52.420;20.728;2022-09-28T03:40:33;10.10;1.00
17984;DHT22;9117;52.420;20.728;2022-09-28T03:43:01;10.00;99.90
17984;DHT22;9117;52.420;20.728;2022-09-28T03:45:29;10.10;99.90
17984;DHT22;9117;52.420;20.728;2022-09-28T03:47:58;10.10;1.00
17984;DHT22;9117;52.420;20.728;2022-09-28T03:50:26;10.00;1.00
17984;DHT22;9117;52.420;20.728;2022-09-28T03:53:00;10.00;95.10
17984;DHT22;9117;52.420;20.728;2022-09-28T03:55:29;10.00;1.00
17984;DHT22;9117;52.420;20.728;2022-09-28T03:57:57;10.00;99.90
17984;DHT22;9117;52.420;20.728;2022-09-28T04:00:25;10.00;1.00
17984;DHT22;9117;52.420;20.728;2022-09-28T04:02:53;10.00;75.80
17984;DHT22;9117;52.420;20.728;2022-09-28T04:05:23;10.00;1.00
17984;DHT22;9117;52.420;20.728;2022-09-28T04:07:53;10.00;99.90
17984;DHT22;9117;52.420;20.728;2022-09-28T04:10:21;10.00;1.00
17984;DHT22;9117;52.420;20.728;2022-09-28T04:12:53;10.00;99.90
17984;DHT22;9117;52.420;20.728;2022-09-28T04:15:21;10.00;99.90
17984;DHT22;9117;52.420;20.728;2022-09-28T04:17:50;10.00;99.90
17984;DHT22;9117;52.420;20.728;2022-09-28T04:20:18;10.00;99.90
17984;DHT22;9117;52.420;20.728;2022-09-28T04:22:47;10.00;1.00
17984;DHT22;9117;52.420;20.728;2022-09-28T04:25:16;10.00;99.90
17984;DHT22;9117;52.420;20.728;2022-09-28T04:27:44;10.00;99.90
17984;DHT22;9117;52.420;20.728;2022-09-28T04:30:29;9.90;99.90
17984;DHT22;9117;52.420;20.728;2022-09-28T04:32:57;9.90;99.90
17984;DHT22;9117;52.420;20.728;2022-09-28T04:35:25;9.90;11.40
17984;DHT22;9117;52.420;20.728;2022-09-28T04:37:55;9.90;1.00
17984;DHT22;9117;52.420;20.728;2022-09-28T04:40:23;9.90;1.00
17984;DHT22;9117;52.420;20.728;2022-09-28T04:42:54;9.90;1.00
17984;DHT22;9117;52.420;20.728;2022-09-28T04:45:23;9.90;1.00
17984;DHT22;9117;52.420;20.728;2022-09-28T04:47:52;9.80;1.00
17984;DHT22;9117;52.420;20.728;2022-09-28T04:50:20;9.80;1.00
17984;DHT22;9117;52.420;20.728;2022-09-28T04:52:48;9.80;1.00
17984;DHT22;9117;52.420;20.728;2022-09-28T04:55:17;9.80;1.00
17984;DHT22;9117;52.420;20.728;2022-09-28T04:57:46;9.80;1.00
17984;DHT22;9117;52.420;20.728;2022-09-28T05:00:14;9.80;1.00
17984;DHT22;9117;52.420;20.728;2022-09-28T05:02:43;9.80;1.00
17984;DHT22;9117;52.420;20.728;2022-09-28T05:05:11;9.80;1.00
17984;DHT22;9117;52.420;20.728;2022-09-28T05:07:39;9.80;1.00
17984;DHT22;9117;52.420;20.728;2022-09-28T05:10:07;9.80;1.00
17984;DHT22;9117;52.420;20.728;2022-09-28T05:12:37;9.80;1.00
17984;DHT22;9117;52.420;20.728;2022-09-28T05:15:06;9.70;57.90
17984;DHT22;9117;52.420;20.728;2022-09-28T05:17:34;9.80;99.90
17984;DHT22;9117;52.420;20.728;2022-09-28T05:20:02;9.70;1.00
17984;DHT22;9117;52.420;20.728;2022-09-28T05:22:31;9.70;1.00
17984;DHT22;9117;52.420;20.728;2022-09-28T05:25:00;9.70;1.00
17984;DHT22;9117;52.420;20.728;2022-09-28T05:27:28;9.70;1.00
17984;DHT22;9117;52.420;20.728;2022-09-28T05:29:58;9.70;1.00
17984;DHT22;9117;52.420;20.728;2022-09-28T05:32:26;9.70;1.00
17984;DHT22;9117;52.420;20.728;2022-09-28T05:34:54;9.70;99.90
17984;DHT22;9117;52.420;20.728;2022-09-28T05:37:22;9.60;99.90
17984;DHT22;9117;52.420;20.728;2022-09-28T05:39:50;9.70;99.90
17984;DHT22;9117;52.420;20.728;2022-09-28T05:42:18;9.70;99.90
17984;DHT22;9117;52.420;20.728;2022-09-28T05:44:46;9.70;1.00
17984;DHT22;9117;52.420;20.728;2022-09-28T05:47:15;9.70;1.00
17984;DHT22;9117;52.420;20.728;2022-09-28T05:49:43;9.70;1.00
17984;DHT22;9117;52.420;20.728;2022-09-28T05:52:11;9.70;99.90
17984;DHT22;9117;52.420;20.728;2022-09-28T05:54:39;9.70;99.90
17984;DHT22;9117;52.420;20.728;2022-09-28T05:57:07;9.60;99.90
17984;DHT22;9117;52.420;20.728;2022-09-28T05:59:36;9.70;99.90
17984;DHT22;9117;52.420;20.728;2022-09-28T06:02:04;9.70;99.90
17984;DHT22;9117;52.420;20.728;2022-09-28T06:04:34;9.70;99.90
17984;DHT22;9117;52.420;20.728;2022-09-28T06:07:02;9.70;1.00
17984;DHT22;9117;52.420;20.728;2022-09-28T06:09:30;9.70;99.90
17984;DHT22;9117;52.420;20.728;2022-09-28T06:11:58;9.80;99.90
17984;DHT22;9117;52.420;20.728;2022-09-28T06:14:26;9.80;99.90
17984;DHT22;9117;52.420;20.728;2022-09-28T06:16:54;9.90;99.90
17984;DHT22;9117;52.420;20.728;2022-09-28T06:19:22;9.90;99.90
17984;DHT22;9117;52.420;20.728;2022-09-28T06:21:52;9.90;99.90
17984;DHT22;9117;52.420;20.728;2022-09-28T06:24:20;9.90;99.90
17984;DHT22;9117;52.420;20.728;2022-09-28T06:26:48;9.90;1.00
17984;DHT22;9117;52.420;20.728;2022-09-28T06:29:16;9.90;1.00
17984;DHT22;9117;52.420;20.728;2022-09-28T06:31:46;9.90;1.00
17984;DHT22;9117;52.420;20.728;2022-09-28T06:34:14;10.00;1.00
17984;DHT22;9117;52.420;20.728;2022-09-28T06:36:42;10.00;1.00
17984;DHT22;9117;52.420;20.728;2022-09-28T06:39:11;9.90;1.00
17984;DHT22;9117;52.420;20.728;2022-09-28T06:41:40;9.90;1.00
17984;DHT22;9117;52.420;20.728;2022-09-28T06:44:08;10.00;1.00
17984;DHT22;9117;52.420;20.728;2022-09-28T06:46:36;10.10;1.00
17984;DHT22;9117;52.420;20.728;2022-09-28T06:49:06;10.10;1.00
17984;DHT22;9117;52.420;20.728;2022-09-28T06:51:35;10.10;1.00
17984;DHT22;9117;52.420;20.728;2022-09-28T06:54:03;10.10;1.00
17984;DHT22;9117;52.420;20.728;2022-09-28T06:56:33;10.10;1.00
17984;DHT22;9117;52.420;20.728;2022-09-28T06:59:01;10.00;1.00
17984;DHT22;9117;52.420;20.728;2022-09-28T07:01:29;10.10;1.00
17984;DHT22;9117;52.420;20.728;2022-09-28T07:03:57;10.20;1.00
17984;DHT22;9117;52.420;20.728;2022-09-28T07:06:27;10.00;1.00
17984;DHT22;9117;52.420;20.728;2022-09-28T07:08:57;10.10;1.00
17984;DHT22;9117;52.420;20.728;2022-09-28T07:11:49;10.20;1.00
17984;DHT22;9117;52.420;20.728;2022-09-28T07:14:18;10.20;1.00
17984;DHT22;9117;52.420;20.728;2022-09-28T07:17:07;10.10;1.00
17984;DHT22;9117;52.420;20.728;2022-09-28T07:19:40;10.20;1.00
17984;DHT22;9117;52.420;20.728;2022-09-28T07:22:08;10.30;1.00
17984;DHT22;9117;52.420;20.728;2022-09-28T07:24:45;10.30;1.00
17984;DHT22;9117;52.420;20.728;2022-09-28T07:27:15;10.30;1.00
17984;DHT22;9117;52.420;20.728;2022-09-28T07:29:43;10.30;1.00
17984;DHT22;9117;52.420;20.728;2022-09-28T07:32:11;10.30;1.00
17984;DHT22;9117;52.420;20.728;2022-09-28T07:34:39;10.30;1.00
17984;DHT22;9117;52.420;20.728;2022-09-28T07:37:09;10.20;1.00
17984;DHT22;9117;52.420;20.728;2022-09-28T07:39:38;10.10;1.00
17984;DHT22;9117;52.420;20.728;2022-09-28T07:42:21;10.40;1.00
17984;DHT22;9117;52.420;20.728;2022-09-28T07:44:50;10.40;1.00
17984;DHT22;9117;52.420;20.728;2022-09-28T07:47:18;10.30;1.00
17984;DHT22;9117;52.420;20.728;2022-09-28T07:49:59;10.30;1.00
17984;DHT22;9117;52.420;20.728;2022-09-28T07:52:27;10.30;1.00
17984;DHT22;9117;52.420;20.728;2022-09-28T07:54:55;10.10;1.00
17984;DHT22;9117;52.420;20.728;2022-09-28T07:57:25;10.00;1.00
17984;DHT22;9117;52.420;20.728;2022-09-28T07:59:53;10.20;1.00
17984;DHT22;9117;52.420;20.728;2022-09-28T08:02:21;9.90;1.00
17984;DHT22;9117;52.420;20.728;2022-09-28T08:04:49;9.90;1.00
17984;DHT22;9117;52.420;20.728;2022-09-28T08:07:18;9.90;1.00
17984;DHT22;9117;52.420;20.728;2022-09-28T08:09:49;9.70;1.00
17984;DHT22;9117;52.420;20.728;2022-09-28T08:12:18;9.80;1.00
17984;DHT22;9117;52.420;20.728;2022-09-28T08:14:48;9.70;1.00
17984;DHT22;9117;52.420;20.728;2022-09-28T08:17:18;9.80;1.00
17984;DHT22;9117;52.420;20.728;2022-09-28T08:19:46;9.70;1.00
17984;DHT22;9117;52.420;20.728;2022-09-28T08:22:31;9.70;1.00
17984;DHT22;9117;52.420;20.728;2022-09-28T08:24:59;9.90;1.00
17984;DHT22;9117;52.420;20.728;2022-09-28T08:27:27;10.10;1.00
17984;DHT22;9117;52.420;20.728;2022-09-28T08:29:57;10.00;1.00
17984;DHT22;9117;52.420;20.728;2022-09-28T08:32:25;10.10;1.00
17984;DHT22;9117;52.420;20.728;2022-09-28T08:34:53;10.30;1.00
17984;DHT22;9117;52.420;20.728;2022-09-28T08:37:22;10.50;1.00
17984;DHT22;9117;52.420;20.728;2022-09-28T08:39:50;10.60;1.00
17984;DHT22;9117;52.420;20.728;2022-09-28T08:42:38;10.60;1.00
17984;DHT22;9117;52.420;20.728;2022-09-28T08:45:11;10.90;1.00
17984;DHT22;9117;52.420;20.728;2022-09-28T08:47:48;10.60;1.00
17984;DHT22;9117;52.420;20.728;2022-09-28T08:50:44;10.80;1.00
17984;DHT22;9117;52.420;20.728;2022-09-28T08:53:31;10.60;1.00
17984;DHT22;9117;52.420;20.728;2022-09-28T08:56:04;10.80;1.00
17984;DHT22;9117;52.420;20.728;2022-09-28T08:58:35;11.10;1.00
17984;DHT22;9117;52.420;20.728;2022-09-28T09:01:07;11.30;1.00
17984;DHT22;9117;52.420;20.728;2022-09-28T09:03:39;11.20;1.00
17984;DHT22;9117;52.420;20.728;2022-09-28T09:06:18;11.20;1.00
17984;DHT22;9117;52.420;20.728;2022-09-28T09:08:57;11.30;1.00
17984;DHT22;9117;52.420;20.728;2022-09-28T09:11:45;11.50;1.00
17984;DHT22;9117;52.420;20.728;2022-09-28T09:17:26;11.50;99.90
17984;DHT22;9117;52.420;20.728;2022-09-28T09:20:07;11.40;99.90
17984;DHT22;9117;52.420;20.728;2022-09-28T09:22:39;11.70;99.90
17984;DHT22;9117;52.420;20.728;2022-09-28T09:25:17;11.30;99.90
17984;DHT22;9117;52.420;20.728;2022-09-28T09:28:10;11.70;99.90
17984;DHT22;9117;52.420;20.728;2022-09-28T09:30:51;11.20;99.90
17984;DHT22;9117;52.420;20.728;2022-09-28T09:33:42;11.20;99.90
17984;DHT22;9117;52.420;20.728;2022-09-28T09:36:29;11.60;99.90
17984;DHT22;9117;52.420;20.728;2022-09-28T09:39:25;11.70;99.90
17984;DHT22;9117;52.420;20.728;2022-09-28T09:42:07;11.90;99.90
17984;DHT22;9117;52.420;20.728;2022-09-28T09:45:04;11.90;99.90
17984;DHT22;9117;52.420;20.728;2022-09-28T09:47:38;12.10;99.90
17984;DHT22;9117;52.420;20.728;2022-09-28T09:50:14;11.80;99.90
17984;DHT22;9117;52.420;20.728;2022-09-28T09:52:51;11.70;99.90
17984;DHT22;9117;52.420;20.728;2022-09-28T09:55:23;11.90;99.90
17984;DHT22;9117;52.420;20.728;2022-09-28T09:58:01;11.90;99.90
17984;DHT22;9117;52.420;20.728;2022-09-28T10:00:31;11.80;99.90
17984;DHT22;9117;52.420;20.728;2022-09-28T10:03:00;11.80;99.90
17984;DHT22;9117;52.420;20.728;2022-09-28T10:05:31;12.00;99.90
17984;DHT22;9117;52.420;20.728;2022-09-28T10:08:04;12.20;99.90
17984;DHT22;9117;52.420;20.728;2022-09-28T10:10:48;12.30;99.90
17984;DHT22;9117;52.420;20.728;2022-09-28T10:13:17;12.60;99.90
17984;DHT22;9117;52.420;20.728;2022-09-28T10:15:45;12.50;99.90
17984;DHT22;9117;52.420;20.728;2022-09-28T10:18:18;12.40;99.90
17984;DHT22;9117;52.420;20.728;2022-09-28T10:20:48;12.50;99.90
17984;DHT22;9117;52.420;20.728;2022-09-28T10:23:19;12.50;99.90
17984;DHT22;9117;52.420;20.728;2022-09-28T10:25:50;12.80;99.90
17984;DHT22;9117;52.420;20.728;2022-09-28T10:28:22;12.80;99.90
17984;DHT22;9117;52.420;20.728;2022-09-28T10:30:52;12.60;99.90
17984;DHT22;9117;52.420;20.728;2022-09-28T10:33:29;12.80;99.90
17984;DHT22;9117;52.420;20.728;2022-09-28T10:36:00;12.90;99.90
17984;DHT22;9117;52.420;20.728;2022-09-28T10:38:31;13.20;99.90
17984;DHT22;9117;52.420;20.728;2022-09-28T10:41:00;13.10;99.90
17984;DHT22;9117;52.420;20.728;2022-09-28T10:43:37;13.10;99.90
17984;DHT22;9117;52.420;20.728;2022-09-28T10:46:07;13.20;99.90
17984;DHT22;9117;52.420;20.728;2022-09-28T10:48:51;13.20;99.90
17984;DHT22;9117;52.420;20.728;2022-09-28T10:51:38;12.80;99.90
17984;DHT22;9117;52.420;20.728;2022-09-28T10:54:13;13.00;99.90
17984;DHT22;9117;52.420;20.728;2022-09-28T10:56:42;13.30;99.90
17984;DHT22;9117;52.420;20.728;2022-09-28T10:59:27;13.30;99.90
17984;DHT22;9117;52.420;20.728;2022-09-28T11:02:03;13.10;99.90
17984;DHT22;9117;52.420;20.728;2022-09-28T11:04:39;13.00;99.90
17984;DHT22;9117;52.420;20.728;2022-09-28T11:07:16;13.20;99.90
17984;DHT22;9117;52.420;20.728;2022-09-28T11:09:46;13.10;99.90
17984;DHT22;9117;52.420;20.728;2022-09-28T11:12:18;13.10;99.90
17984;DHT22;9117;52.420;20.728;2022-09-28T11:14:48;13.20;99.90
17984;DHT22;9117;52.420;20.728;2022-09-28T11:17:27;13.20;99.90
17984;DHT22;9117;52.420;20.728;2022-09-28T11:19:57;13.10;99.90
17984;DHT22;9117;52.420;20.728;2022-09-28T11:22:38;13.00;99.90
17984;DHT22;9117;52.420;20.728;2022-09-28T11:25:28;13.30;99.90
17984;DHT22;9117;52.420;20.728;2022-09-28T11:27:59;14.30;99.90
17984;DHT22;9117;52.420;20.728;2022-09-28T11:30:33;14.60;99.90
17984;DHT22;9117;52.420;20.728;2022-09-28T11:33:10;14.10;99.90
17984;DHT22;9117;52.420;20.728;2022-09-28T11:35:46;13.80;99.90
17984;DHT22;9117;52.420;20.728;2022-09-28T11:38:30;13.70;99.90
17984;DHT22;9117;52.420;20.728;2022-09-28T11:41:16;13.70;99.90
17984;DHT22;9117;52.420;20.728;2022-09-28T11:44:09;13.80;99.90
17984;DHT22;9117;52.420;20.728;2022-09-28T11:46:50;13.40;99.90
17984;DHT22;9117;52.420;20.728;2022-09-28T11:49:28;13.80;99.90
17984;DHT22;9117;52.420;20.728;2022-09-28T11:52:01;13.70;99.90
17984;DHT22;9117;52.420;20.728;2022-09-28T11:54:37;13.60;99.90
17984;DHT22;9117;52.420;20.728;2022-09-28T11:57:13;13.60;99.90
17984;DHT22;9117;52.420;20.728;2022-09-28T11:59:50;13.70;99.90
17984;DHT22;9117;52.420;20.728;2022-09-28T12:02:22;13.50;99.90
17984;DHT22;9117;52.420;20.728;2022-09-28T12:04:55;13.60;99.90
17984;DHT22;9117;52.420;20.728;2022-09-28T12:07:28;13.60;99.90
17984;DHT22;9117;52.420;20.728;2022-09-28T12:10:05;13.50;99.90
17984;DHT22;9117;52.420;20.728;2022-09-28T12:12:38;13.50;99.90
17984;DHT22;9117;52.420;20.728;2022-09-28T12:15:15;13.20;99.90
17984;DHT22;9117;52.420;20.728;2022-09-28T12:17:47;13.10;99.90
17984;DHT22;9117;52.420;20.728;2022-09-28T12:20:20;13.20;99.90
17984;DHT22;9117;52.420;20.728;2022-09-28T12:23:00;13.10;99.90
17984;DHT22;9117;52.420;20.728;2022-09-28T12:25:36;13.20;99.90
17984;DHT22;9117;52.420;20.728;2022-09-28T12:28:15;13.30;99.90
17984;DHT22;9117;52.420;20.728;2022-09-28T12:30:44;13.30;99.90
17984;DHT22;9117;52.420;20.728;2022-09-28T12:33:14;13.40;99.90
17984;DHT22;9117;52.420;20.728;2022-09-28T12:35:54;13.90;99.90
17984;DHT22;9117;52.420;20.728;2022-09-28T12:38:37;13.90;99.90
17984;DHT22;9117;52.420;20.728;2022-09-28T12:41:23;13.90;99.90
17984;DHT22;9117;52.420;20.728;2022-09-28T12:44:17;13.80;99.90
17984;DHT22;9117;52.420;20.728;2022-09-28T12:47:02;13.70;99.90
17984;DHT22;9117;52.420;20.728;2022-09-28T12:49:50;14.00;99.90
17984;DHT22;9117;52.420;20.728;2022-09-28T12:52:50;14.10;99.90
17984;DHT22;9117;52.420;20.728;2022-09-28T12:55:45;14.10;99.90
17984;DHT22;9117;52.420;20.728;2022-09-28T13:01:30;14.10;99.90
17984;DHT22;9117;52.420;20.728;2022-09-28T13:04:22;14.00;99.90
17984;DHT22;9117;52.420;20.728;2022-09-28T13:07:02;14.00;99.90
17984;DHT22;9117;52.420;20.728;2022-09-28T13:09:39;13.80;99.90
17984;DHT22;9117;52.420;20.728;2022-09-28T13:12:15;13.90;99.90
17984;DHT22;9117;52.420;20.728;2022-09-28T13:17:56;14.80;99.90
17984;DHT22;9117;52.420;20.728;2022-09-28T13:20:36;16.10;99.90
17984;DHT22;9117;52.420;20.728;2022-09-28T13:23:14;16.80;99.90
17984;DHT22;9117;52.420;20.728;2022-09-28T13:25:49;17.20;99.90
17984;DHT22;9117;52.420;20.728;2022-09-28T13:28:22;17.60;99.90
17984;DHT22;9117;52.420;20.728;2022-09-28T13:30:55;16.80;99.90
17984;DHT22;9117;52.420;20.728;2022-09-28T13:33:29;17.90;99.90
17984;DHT22;9117;52.420;20.728;2022-09-28T13:36:03;18.50;99.90
17984;DHT22;9117;52.420;20.728;2022-09-28T13:38:49;18.10;99.90
17984;DHT22;9117;52.420;20.728;2022-09-28T13:41:21;19.20;99.90
17984;DHT22;9117;52.420;20.728;2022-09-28T13:47:09;19.70;99.90
17984;DHT22;9117;52.420;20.728;2022-09-28T13:49:57;20.80;99.90
17984;DHT22;9117;52.420;20.728;2022-09-28T13:52:35;20.70;99.90
17984;DHT22;9117;52.420;20.728;2022-09-28T13:55:18;21.10;99.90
17984;DHT22;9117;52.420;20.728;2022-09-28T13:57:53;20.20;99.90
17984;DHT22;9117;52.420;20.728;2022-09-28T14:00:27;19.20;99.90
17984;DHT22;9117;52.420;20.728;2022-09-28T14:03:03;18.70;99.90
17984;DHT22;9117;52.420;20.728;2022-09-28T14:05:47;18.70;99.90
17984;DHT22;9117;52.420;20.728;2022-09-28T14:08:27;19.50;99.90
17984;DHT22;9117;52.420;20.728;2022-09-28T14:10:55;20.00;99.90
17984;DHT22;9117;52.420;20.728;2022-09-28T14:13:58;20.70;99.90
17984;DHT22;9117;52.420;20.728;2022-09-28T14:16:27;19.80;99.90
17984;DHT22;9117;52.420;20.728;2022-09-28T14:19:02;18.90;99.90
17984;DHT22;9117;52.420;20.728;2022-09-28T14:21:52;17.60;99.90
17984;DHT22;9117;52.420;20.728;2022-09-28T14:24:29;17.20;99.90
17984;DHT22;9117;52.420;20.728;2022-09-28T14:30:06;16.50;99.90
17984;DHT22;9117;52.420;20.728;2022-09-28T14:32:51;17.40;99.90
17984;DHT22;9117;52.420;20.728;2022-09-28T14:35:26;17.20;99.90
17984;DHT22;9117;52.420;20.728;2022-09-28T14:37:59;16.90;99.90
17984;DHT22;9117;52.420;20.728;2022-09-28T14:40:59;16.60;99.90
17984;DHT22;9117;52.420;20.728;2022-09-28T14:43:56;16.60;99.90
17984;DHT22;9117;52.420;20.728;2022-09-28T14:46:35;16.10;99.90
17984;DHT22;9117;52.420;20.728;2022-09-28T14:52:01;15.30;99.90
17984;DHT22;9117;52.420;20.728;2022-09-28T14:54:41;15.30;99.90
17984;DHT22;9117;52.420;20.728;2022-09-28T14:57:21;15.10;99.90
17984;DHT22;9117;52.420;20.728;2022-09-28T14:59:49;15.10;99.90
17984;DHT22;9117;52.420;20.728;2022-09-28T15:02:21;14.90;99.90
17984;DHT22;9117;52.420;20.728;2022-09-28T15:04:52;14.80;99.90
17984;DHT22;9117;52.420;20.728;2022-09-28T15:07:25;14.40;99.90
17984;DHT22;9117;52.420;20.728;2022-09-28T15:09:55;14.20;99.90
17984;DHT22;9117;52.420;20.728;2022-09-28T15:12:25;14.10;99.90
17984;DHT22;9117;52.420;20.728;2022-09-28T15:14:56;14.00;99.90
17984;DHT22;9117;52.420;20.728;2022-09-28T15:17:27;13.90;99.90
17984;DHT22;9117;52.420;20.728;2022-09-28T15:20:19;13.90;99.90
17984;DHT22;9117;52.420;20.728;2022-09-28T15:22:52;13.80;99.90
17984;DHT22;9117;52.420;20.728;2022-09-28T15:25:25;13.70;99.90
17984;DHT22;9117;52.420;20.728;2022-09-28T15:27:54;13.60;99.90
17984;DHT22;9117;52.420;20.728;2022-09-28T15:30:27;13.50;99.90
17984;DHT22;9117;52.420;20.728;2022-09-28T15:33:01;13.40;99.90
17984;DHT22;9117;52.420;20.728;2022-09-28T15:35:46;13.30;99.90
17984;DHT22;9117;52.420;20.728;2022-09-28T15:38:17;13.30;99.90
17984;DHT22;9117;52.420;20.728;2022-09-28T15:40:45;13.30;99.90
17984;DHT22;9117;52.420;20.728;2022-09-28T15:43:23;13.40;99.90
17984;DHT22;9117;52.420;20.728;2022-09-28T15:45:56;13.20;99.90
17984;DHT22;9117;52.420;20.728;2022-09-28T15:48:30;13.30;99.90
17984;DHT22;9117;52.420;20.728;2022-09-28T15:51:03;13.10;99.90
17984;DHT22;9117;52.420;20.728;2022-09-28T15:53:42;13.10;99.90
17984;DHT22;9117;52.420;20.728;2022-09-28T15:56:13;13.10;99.90
17984;DHT22;9117;52.420;20.728;2022-09-28T15:58:42;13.10;99.90
17984;DHT22;9117;52.420;20.728;2022-09-28T16:01:26;13.10;99.90
17984;DHT22;9117;52.420;20.728;2022-09-28T16:04:37;13.00;99.90
17984;DHT22;9117;52.420;20.728;2022-09-28T16:07:24;13.00;99.90
17984;DHT22;9117;52.420;20.728;2022-09-28T16:09:56;12.80;99.90
17984;DHT22;9117;52.420;20.728;2022-09-28T16:12:28;12.80;99.90
17984;DHT22;9117;52.420;20.728;2022-09-28T16:15:00;12.90;99.90
17984;DHT22;9117;52.420;20.728;2022-09-28T16:17:33;12.80;99.90
17984;DHT22;9117;52.420;20.728;2022-09-28T16:20:16;12.80;99.90
17984;DHT22;9117;52.420;20.728;2022-09-28T16:22:45;12.70;99.90
17984;DHT22;9117;52.420;20.728;2022-09-28T16:25:18;12.70;99.90
17984;DHT22;9117;52.420;20.728;2022-09-28T16:27:49;12.70;99.90
17984;DHT22;9117;52.420;20.728;2022-09-28T16:30:20;12.60;99.90
17984;DHT22;9117;52.420;20.728;2022-09-28T16:32:51;12.60;99.90
17984;DHT22;9117;52.420;20.728;2022-09-28T16:35:23;12.50;99.90
17984;DHT22;9117;52.420;20.728;2022-09-28T16:38:01;12.50;99.90
17984;DHT22;9117;52.420;20.728;2022-09-28T16:40:32;12.50;99.90
17984;DHT22;9117;52.420;20.728;2022-09-28T16:43:03;12.50;99.90